Karditsa, Greece
Current Conditions -  °F | °C
As of 3:50 AM on Saturday 25 Oct 2014 (Local Time) from LGLR Reporting Station
Overcast Overcast  
Wind Chill: 50°   Ceiling: 3000
Heat Index: 50°   Visibility: 6mi
Dew Point: 45°   Wind: 6mph
Humidity: 82%   Direction: 260°W
Pressure: 29.71"   Gusts: NA
Location:  39.37°N, 21.92°E
Report Text: LGLR 250050Z 26005KT 9999 FEW015 BKN030 OVC070 10/07 Q1006 BLU
Loading
Personal Weather Stations






























Interactive Weather Map New forecast layout! Learn more

10-Day Weather Forecast

Advertisements
Track Severe Weather on mobile